sensor_id;sensor_type;location;lat;lon;timestamp;P1;durP1;ratioP1;P2;durP2;ratioP2
56537;SDS011;42435;53.292;6.000;2023-02-22T00:00:57;63.72;;;26.50;;
56537;SDS011;42435;53.292;6.000;2023-02-22T00:03:30;67.45;;;26.67;;
56537;SDS011;42435;53.292;6.000;2023-02-22T00:05:57;68.97;;;27.27;;
56537;SDS011;42435;53.292;6.000;2023-02-22T00:08:27;61.83;;;26.02;;
56537;SDS011;42435;53.292;6.000;2023-02-22T00:10:58;73.22;;;28.92;;
56537;SDS011;42435;53.292;6.000;2023-02-22T00:13:26;73.15;;;27.70;;
56537;SDS011;42435;53.292;6.000;2023-02-22T00:15:54;74.30;;;29.23;;
56537;SDS011;42435;53.292;6.000;2023-02-22T00:18:22;76.07;;;28.58;;
56537;SDS011;42435;53.292;6.000;2023-02-22T00:20:48;69.55;;;28.95;;
56537;SDS011;42435;53.292;6.000;2023-02-22T00:23:16;71.65;;;27.45;;
56537;SDS011;42435;53.292;6.000;2023-02-22T00:25:46;74.15;;;30.50;;
56537;SDS011;42435;53.292;6.000;2023-02-22T00:28:14;83.57;;;30.13;;
56537;SDS011;42435;53.292;6.000;2023-02-22T00:30:41;75.32;;;29.95;;
56537;SDS011;42435;53.292;6.000;2023-02-22T00:33:09;80.13;;;30.13;;
56537;SDS011;42435;53.292;6.000;2023-02-22T00:35:36;74.60;;;30.13;;
56537;SDS011;42435;53.292;6.000;2023-02-22T00:38:03;75.45;;;29.25;;
56537;SDS011;42435;53.292;6.000;2023-02-22T00:40:31;77.03;;;30.38;;
56537;SDS011;42435;53.292;6.000;2023-02-22T00:42:58;78.10;;;30.38;;
56537;SDS011;42435;53.292;6.000;2023-02-22T00:45:27;83.57;;;31.85;;
56537;SDS011;42435;53.292;6.000;2023-02-22T00:47:56;83.35;;;31.50;;
56537;SDS011;42435;53.292;6.000;2023-02-22T00:50:24;88.43;;;32.00;;
56537;SDS011;42435;53.292;6.000;2023-02-22T00:52:51;85.63;;;32.25;;
56537;SDS011;42435;53.292;6.000;2023-02-22T00:55:23;69.47;;;29.45;;
56537;SDS011;42435;53.292;6.000;2023-02-22T00:57:57;82.35;;;30.75;;
56537;SDS011;42435;53.292;6.000;2023-02-22T01:00:27;77.80;;;28.50;;
56537;SDS011;42435;53.292;6.000;2023-02-22T01:02:56;80.13;;;30.30;;
56537;SDS011;42435;53.292;6.000;2023-02-22T01:05:25;79.32;;;29.73;;
56537;SDS011;42435;53.292;6.000;2023-02-22T01:07:53;83.15;;;30.00;;
56537;SDS011;42435;53.292;6.000;2023-02-22T01:10:21;71.65;;;27.75;;
56537;SDS011;42435;53.292;6.000;2023-02-22T01:12:49;78.05;;;28.83;;
56537;SDS011;42435;53.292;6.000;2023-02-22T01:15:17;76.78;;;28.98;;
56537;SDS011;42435;53.292;6.000;2023-02-22T01:17:49;81.35;;;30.55;;
56537;SDS011;42435;53.292;6.000;2023-02-22T01:20:18;75.38;;;28.00;;
56537;SDS011;42435;53.292;6.000;2023-02-22T01:22:47;81.00;;;30.20;;
56537;SDS011;42435;53.292;6.000;2023-02-22T01:25:18;81.97;;;29.90;;
56537;SDS011;42435;53.292;6.000;2023-02-22T01:27:47;76.43;;;28.58;;
56537;SDS011;42435;53.292;6.000;2023-02-22T01:30:14;87.32;;;30.33;;
56537;SDS011;42435;53.292;6.000;2023-02-22T01:32:42;71.50;;;28.08;;
56537;SDS011;42435;53.292;6.000;2023-02-22T01:35:10;80.55;;;28.90;;
56537;SDS011;42435;53.292;6.000;2023-02-22T01:37:39;72.22;;;28.38;;
56537;SDS011;42435;53.292;6.000;2023-02-22T01:40:07;70.88;;;26.92;;
56537;SDS011;42435;53.292;6.000;2023-02-22T01:42:35;76.97;;;25.80;;
56537;SDS011;42435;53.292;6.000;2023-02-22T01:50:54;70.95;;;25.52;;
56537;SDS011;42435;53.292;6.000;2023-02-22T01:53:58;66.63;;;25.20;;
56537;SDS011;42435;53.292;6.000;2023-02-22T01:59:39;68.15;;;26.15;;
56537;SDS011;42435;53.292;6.000;2023-02-22T02:02:08;65.57;;;24.67;;
56537;SDS011;42435;53.292;6.000;2023-02-22T02:04:35;56.83;;;24.55;;
56537;SDS011;42435;53.292;6.000;2023-02-22T02:07:03;69.65;;;25.20;;
56537;SDS011;42435;53.292;6.000;2023-02-22T02:12:12;68.28;;;25.63;;
56537;SDS011;42435;53.292;6.000;2023-02-22T02:14:41;60.25;;;24.05;;
56537;SDS011;42435;53.292;6.000;2023-02-22T02:17:08;62.55;;;23.33;;
56537;SDS011;42435;53.292;6.000;2023-02-22T02:22:19;56.95;;;21.40;;
56537;SDS011;42435;53.292;6.000;2023-02-22T02:39:28;63.40;;;24.02;;
56537;SDS011;42435;53.292;6.000;2023-02-22T02:42:06;54.47;;;19.55;;
56537;SDS011;42435;53.292;6.000;2023-02-22T02:44:38;59.35;;;21.65;;
56537;SDS011;42435;53.292;6.000;2023-02-22T02:47:09;53.33;;;20.35;;
56537;SDS011;42435;53.292;6.000;2023-02-22T02:49:43;53.92;;;20.60;;
56537;SDS011;42435;53.292;6.000;2023-02-22T02:52:17;55.33;;;21.13;;
56537;SDS011;42435;53.292;6.000;2023-02-22T02:54:45;52.97;;;19.70;;
56537;SDS011;42435;53.292;6.000;2023-02-22T02:57:13;54.28;;;21.85;;
56537;SDS011;42435;53.292;6.000;2023-02-22T02:59:39;54.45;;;20.35;;
56537;SDS011;42435;53.292;6.000;2023-02-22T03:05:03;52.70;;;19.52;;
56537;SDS011;42435;53.292;6.000;2023-02-22T03:13:52;57.00;;;20.25;;
56537;SDS011;42435;53.292;6.000;2023-02-22T03:22:06;47.72;;;19.33;;
56537;SDS011;42435;53.292;6.000;2023-02-22T03:24:48;52.88;;;20.77;;
56537;SDS011;42435;53.292;6.000;2023-02-22T03:27:42;49.88;;;20.13;;
56537;SDS011;42435;53.292;6.000;2023-02-22T03:30:14;57.45;;;20.95;;
56537;SDS011;42435;53.292;6.000;2023-02-22T03:32:46;61.40;;;20.45;;
56537;SDS011;42435;53.292;6.000;2023-02-22T03:35:21;65.80;;;22.98;;
56537;SDS011;42435;53.292;6.000;2023-02-22T03:37:55;67.35;;;23.00;;
56537;SDS011;42435;53.292;6.000;2023-02-22T03:40:27;68.53;;;23.15;;
56537;SDS011;42435;53.292;6.000;2023-02-22T03:43:09;64.47;;;22.73;;
56537;SDS011;42435;53.292;6.000;2023-02-22T03:45:43;58.40;;;22.42;;
56537;SDS011;42435;53.292;6.000;2023-02-22T03:48:15;61.58;;;23.17;;
56537;SDS011;42435;53.292;6.000;2023-02-22T03:50:58;62.38;;;21.80;;
56537;SDS011;42435;53.292;6.000;2023-02-22T03:53:27;61.90;;;22.35;;
56537;SDS011;42435;53.292;6.000;2023-02-22T03:55:55;55.17;;;19.75;;
56537;SDS011;42435;53.292;6.000;2023-02-22T03:58:24;61.58;;;21.23;;
56537;SDS011;42435;53.292;6.000;2023-02-22T04:00:56;52.53;;;20.85;;
56537;SDS011;42435;53.292;6.000;2023-02-22T04:03:22;62.70;;;22.23;;
56537;SDS011;42435;53.292;6.000;2023-02-22T04:05:49;65.03;;;24.38;;
56537;SDS011;42435;53.292;6.000;2023-02-22T04:08:15;61.75;;;21.80;;
56537;SDS011;42435;53.292;6.000;2023-02-22T04:10:42;60.47;;;22.63;;
56537;SDS011;42435;53.292;6.000;2023-02-22T04:13:09;53.08;;;21.35;;
56537;SDS011;42435;53.292;6.000;2023-02-22T04:15:36;61.15;;;22.95;;
56537;SDS011;42435;53.292;6.000;2023-02-22T04:18:03;62.08;;;22.77;;
56537;SDS011;42435;53.292;6.000;2023-02-22T04:20:30;64.88;;;23.02;;
56537;SDS011;42435;53.292;6.000;2023-02-22T04:22:58;50.30;;;19.85;;
56537;SDS011;42435;53.292;6.000;2023-02-22T04:25:26;57.03;;;19.63;;
56537;SDS011;42435;53.292;6.000;2023-02-22T04:27:52;51.65;;;19.35;;
56537;SDS011;42435;53.292;6.000;2023-02-22T04:30:19;51.80;;;19.35;;
56537;SDS011;42435;53.292;6.000;2023-02-22T04:32:45;59.65;;;21.80;;
56537;SDS011;42435;53.292;6.000;2023-02-22T04:35:12;50.42;;;18.65;;
56537;SDS011;42435;53.292;6.000;2023-02-22T04:37:39;50.10;;;18.02;;
56537;SDS011;42435;53.292;6.000;2023-02-22T04:40:08;44.50;;;18.00;;
56537;SDS011;42435;53.292;6.000;2023-02-22T04:42:36;43.88;;;17.88;;
56537;SDS011;42435;53.292;6.000;2023-02-22T04:45:04;43.63;;;17.23;;
56537;SDS011;42435;53.292;6.000;2023-02-22T04:47:32;43.85;;;18.60;;
56537;SDS011;42435;53.292;6.000;2023-02-22T04:49:59;44.75;;;18.58;;
56537;SDS011;42435;53.292;6.000;2023-02-22T04:52:25;43.30;;;17.75;;
56537;SDS011;42435;53.292;6.000;2023-02-22T04:54:52;45.72;;;17.33;;
56537;SDS011;42435;53.292;6.000;2023-02-22T04:57:21;37.83;;;15.77;;
56537;SDS011;42435;53.292;6.000;2023-02-22T04:59:48;40.95;;;16.85;;
56537;SDS011;42435;53.292;6.000;2023-02-22T05:02:16;37.60;;;16.00;;
56537;SDS011;42435;53.292;6.000;2023-02-22T05:04:42;32.70;;;15.05;;
56537;SDS011;42435;53.292;6.000;2023-02-22T05:07:09;37.90;;;15.52;;
56537;SDS011;42435;53.292;6.000;2023-02-22T05:09:37;30.50;;;15.13;;
56537;SDS011;42435;53.292;6.000;2023-02-22T05:12:04;34.72;;;15.48;;
56537;SDS011;42435;53.292;6.000;2023-02-22T05:14:32;33.05;;;15.75;;
56537;SDS011;42435;53.292;6.000;2023-02-22T05:16:58;30.65;;;13.77;;
56537;SDS011;42435;53.292;6.000;2023-02-22T05:19:25;31.15;;;14.90;;
56537;SDS011;42435;53.292;6.000;2023-02-22T05:21:51;27.80;;;13.27;;
56537;SDS011;42435;53.292;6.000;2023-02-22T05:24:22;31.70;;;14.95;;
56537;SDS011;42435;53.292;6.000;2023-02-22T05:26:48;30.08;;;13.57;;
56537;SDS011;42435;53.292;6.000;2023-02-22T05:29:17;31.00;;;14.48;;
56537;SDS011;42435;53.292;6.000;2023-02-22T05:31:45;30.08;;;14.25;;
56537;SDS011;42435;53.292;6.000;2023-02-22T05:34:13;34.03;;;15.02;;
56537;SDS011;42435;53.292;6.000;2023-02-22T05:36:40;28.85;;;14.02;;
56537;SDS011;42435;53.292;6.000;2023-02-22T05:39:06;31.58;;;14.88;;
56537;SDS011;42435;53.292;6.000;2023-02-22T05:41:31;32.45;;;14.63;;
56537;SDS011;42435;53.292;6.000;2023-02-22T05:43:58;30.75;;;14.75;;
56537;SDS011;42435;53.292;6.000;2023-02-22T05:46:27;33.03;;;16.20;;
56537;SDS011;42435;53.292;6.000;2023-02-22T05:48:53;31.23;;;15.07;;
56537;SDS011;42435;53.292;6.000;2023-02-22T05:51:21;32.65;;;14.93;;
56537;SDS011;42435;53.292;6.000;2023-02-22T05:53:48;28.90;;;14.27;;
56537;SDS011;42435;53.292;6.000;2023-02-22T05:56:19;32.25;;;15.52;;
56537;SDS011;42435;53.292;6.000;2023-02-22T05:58:47;31.08;;;14.65;;
56537;SDS011;42435;53.292;6.000;2023-02-22T06:01:14;35.97;;;17.33;;
56537;SDS011;42435;53.292;6.000;2023-02-22T06:03:40;35.78;;;16.23;;
56537;SDS011;42435;53.292;6.000;2023-02-22T06:06:11;33.90;;;15.13;;
56537;SDS011;42435;53.292;6.000;2023-02-22T06:08:38;33.85;;;16.40;;
56537;SDS011;42435;53.292;6.000;2023-02-22T06:11:05;36.75;;;17.15;;
56537;SDS011;42435;53.292;6.000;2023-02-22T06:13:30;35.42;;;16.58;;
56537;SDS011;42435;53.292;6.000;2023-02-22T06:15:56;39.22;;;19.52;;
56537;SDS011;42435;53.292;6.000;2023-02-22T06:18:23;38.72;;;18.15;;
56537;SDS011;42435;53.292;6.000;2023-02-22T06:20:51;39.70;;;18.90;;
56537;SDS011;42435;53.292;6.000;2023-02-22T06:23:18;44.10;;;19.27;;
56537;SDS011;42435;53.292;6.000;2023-02-22T06:25:44;42.00;;;20.52;;
56537;SDS011;42435;53.292;6.000;2023-02-22T06:28:10;46.13;;;20.13;;
56537;SDS011;42435;53.292;6.000;2023-02-22T06:30:38;43.13;;;20.08;;
56537;SDS011;42435;53.292;6.000;2023-02-22T06:33:07;42.80;;;19.70;;
56537;SDS011;42435;53.292;6.000;2023-02-22T06:35:34;47.80;;;20.65;;
56537;SDS011;42435;53.292;6.000;2023-02-22T06:38:00;49.90;;;23.25;;
56537;SDS011;42435;53.292;6.000;2023-02-22T06:40:26;50.35;;;23.42;;
56537;SDS011;42435;53.292;6.000;2023-02-22T06:42:55;54.05;;;23.77;;
56537;SDS011;42435;53.292;6.000;2023-02-22T06:45:25;52.10;;;25.42;;
56537;SDS011;42435;53.292;6.000;2023-02-22T06:47:51;56.03;;;26.73;;
56537;SDS011;42435;53.292;6.000;2023-02-22T06:52:51;63.38;;;28.17;;
56537;SDS011;42435;53.292;6.000;2023-02-22T06:55:19;58.15;;;25.70;;
56537;SDS011;42435;53.292;6.000;2023-02-22T06:57:50;66.93;;;30.92;;
56537;SDS011;42435;53.292;6.000;2023-02-22T07:00:17;61.05;;;26.92;;
56537;SDS011;42435;53.292;6.000;2023-02-22T07:02:45;69.15;;;31.85;;
56537;SDS011;42435;53.292;6.000;2023-02-22T07:05:13;72.65;;;30.70;;
56537;SDS011;42435;53.292;6.000;2023-02-22T07:07:41;69.82;;;31.20;;
56537;SDS011;42435;53.292;6.000;2023-02-22T07:10:13;70.93;;;31.38;;
56537;SDS011;42435;53.292;6.000;2023-02-22T07:12:48;69.20;;;31.88;;
56537;SDS011;42435;53.292;6.000;2023-02-22T07:15:17;75.18;;;33.30;;
56537;SDS011;42435;53.292;6.000;2023-02-22T07:17:46;77.65;;;34.20;;
56537;SDS011;42435;53.292;6.000;2023-02-22T07:20:12;85.43;;;37.35;;
56537;SDS011;42435;53.292;6.000;2023-02-22T07:22:39;80.25;;;35.00;;
56537;SDS011;42435;53.292;6.000;2023-02-22T07:25:07;77.82;;;36.58;;
56537;SDS011;42435;53.292;6.000;2023-02-22T07:27:37;84.55;;;36.03;;
56537;SDS011;42435;53.292;6.000;2023-02-22T07:32:50;89.90;;;37.63;;
56537;SDS011;42435;53.292;6.000;2023-02-22T07:35:20;92.70;;;38.30;;
56537;SDS011;42435;53.292;6.000;2023-02-22T07:37:47;86.13;;;38.88;;
56537;SDS011;42435;53.292;6.000;2023-02-22T07:40:14;89.45;;;37.60;;
56537;SDS011;42435;53.292;6.000;2023-02-22T07:42:56;85.55;;;38.55;;
56537;SDS011;42435;53.292;6.000;2023-02-22T07:45:31;84.88;;;36.95;;
56537;SDS011;42435;53.292;6.000;2023-02-22T07:48:03;88.40;;;38.47;;
56537;SDS011;42435;53.292;6.000;2023-02-22T07:50:36;94.90;;;39.97;;
56537;SDS011;42435;53.292;6.000;2023-02-22T07:53:04;95.88;;;39.63;;
56537;SDS011;42435;53.292;6.000;2023-02-22T07:55:35;93.53;;;38.78;;
56537;SDS011;42435;53.292;6.000;2023-02-22T07:58:02;102.80;;;40.97;;
56537;SDS011;42435;53.292;6.000;2023-02-22T08:00:31;96.20;;;40.90;;
56537;SDS011;42435;53.292;6.000;2023-02-22T08:03:00;94.40;;;42.58;;
56537;SDS011;42435;53.292;6.000;2023-02-22T08:05:27;96.22;;;43.20;;
56537;SDS011;42435;53.292;6.000;2023-02-22T08:07:54;94.22;;;41.60;;
56537;SDS011;42435;53.292;6.000;2023-02-22T08:10:21;97.93;;;42.58;;
56537;SDS011;42435;53.292;6.000;2023-02-22T08:12:48;97.45;;;42.53;;
56537;SDS011;42435;53.292;6.000;2023-02-22T08:15:16;99.85;;;41.80;;
56537;SDS011;42435;53.292;6.000;2023-02-22T08:17:44;100.75;;;44.03;;
56537;SDS011;42435;53.292;6.000;2023-02-22T08:20:09;95.63;;;43.83;;
56537;SDS011;42435;53.292;6.000;2023-02-22T08:22:35;97.38;;;45.75;;
56537;SDS011;42435;53.292;6.000;2023-02-22T08:25:01;100.90;;;43.45;;
56537;SDS011;42435;53.292;6.000;2023-02-22T08:27:28;102.97;;;45.20;;
56537;SDS011;42435;53.292;6.000;2023-02-22T08:29:54;109.10;;;48.33;;
56537;SDS011;42435;53.292;6.000;2023-02-22T08:32:21;102.72;;;45.58;;
56537;SDS011;42435;53.292;6.000;2023-02-22T08:34:47;102.40;;;43.50;;
56537;SDS011;42435;53.292;6.000;2023-02-22T08:37:13;106.22;;;45.67;;
56537;SDS011;42435;53.292;6.000;2023-02-22T08:39:40;112.25;;;48.70;;
56537;SDS011;42435;53.292;6.000;2023-02-22T08:42:06;107.60;;;46.38;;
56537;SDS011;42435;53.292;6.000;2023-02-22T08:44:35;106.80;;;45.45;;
56537;SDS011;42435;53.292;6.000;2023-02-22T08:47:02;117.70;;;47.53;;
56537;SDS011;42435;53.292;6.000;2023-02-22T08:49:28;113.78;;;46.00;;
56537;SDS011;42435;53.292;6.000;2023-02-22T08:54:59;107.80;;;46.38;;
56537;SDS011;42435;53.292;6.000;2023-02-22T08:57:24;110.47;;;47.10;;
56537;SDS011;42435;53.292;6.000;2023-02-22T08:59:50;115.18;;;48.85;;
56537;SDS011;42435;53.292;6.000;2023-02-22T09:02:18;112.70;;;49.70;;
56537;SDS011;42435;53.292;6.000;2023-02-22T09:04:45;118.82;;;53.70;;
56537;SDS011;42435;53.292;6.000;2023-02-22T09:07:12;122.10;;;48.33;;
56537;SDS011;42435;53.292;6.000;2023-02-22T09:09:38;112.25;;;48.20;;
56537;SDS011;42435;53.292;6.000;2023-02-22T09:12:04;109.45;;;45.35;;
56537;SDS011;42435;53.292;6.000;2023-02-22T09:14:29;109.25;;;44.90;;
56537;SDS011;42435;53.292;6.000;2023-02-22T09:16:56;114.88;;;48.78;;
56537;SDS011;42435;53.292;6.000;2023-02-22T09:19:21;115.43;;;47.60;;
56537;SDS011;42435;53.292;6.000;2023-02-22T09:21:53;110.70;;;46.75;;
56537;SDS011;42435;53.292;6.000;2023-02-22T09:24:26;110.63;;;47.25;;
56537;SDS011;42435;53.292;6.000;2023-02-22T09:26:52;112.13;;;47.08;;
56537;SDS011;42435;53.292;6.000;2023-02-22T09:29:22;111.90;;;46.45;;
56537;SDS011;42435;53.292;6.000;2023-02-22T09:31:49;109.45;;;47.70;;
56537;SDS011;42435;53.292;6.000;2023-02-22T09:34:17;111.45;;;47.70;;
56537;SDS011;42435;53.292;6.000;2023-02-22T09:36:44;109.15;;;45.85;;
56537;SDS011;42435;53.292;6.000;2023-02-22T09:39:12;109.68;;;48.08;;
56537;SDS011;42435;53.292;6.000;2023-02-22T09:47:11;114.30;;;48.40;;
56537;SDS011;42435;53.292;6.000;2023-02-22T09:49:49;110.05;;;47.45;;
56537;SDS011;42435;53.292;6.000;2023-02-22T09:52:17;116.53;;;49.40;;
56537;SDS011;42435;53.292;6.000;2023-02-22T09:55:06;110.45;;;48.10;;
56537;SDS011;42435;53.292;6.000;2023-02-22T09:57:40;111.05;;;48.35;;
56537;SDS011;42435;53.292;6.000;2023-02-22T10:00:17;103.45;;;47.30;;
56537;SDS011;42435;53.292;6.000;2023-02-22T10:02:48;114.57;;;47.58;;
56537;SDS011;42435;53.292;6.000;2023-02-22T10:05:20;108.28;;;46.35;;
56537;SDS011;42435;53.292;6.000;2023-02-22T10:07:57;115.88;;;51.30;;
56537;SDS011;42435;53.292;6.000;2023-02-22T10:10:31;104.30;;;48.30;;
56537;SDS011;42435;53.292;6.000;2023-02-22T10:13:15;107.13;;;46.60;;
56537;SDS011;42435;53.292;6.000;2023-02-22T10:16:05;110.47;;;48.30;;
56537;SDS011;42435;53.292;6.000;2023-02-22T10:19:15;106.43;;;44.90;;
56537;SDS011;42435;53.292;6.000;2023-02-22T10:22:08;105.27;;;45.20;;
56537;SDS011;42435;53.292;6.000;2023-02-22T10:24:55;104.75;;;45.90;;
56537;SDS011;42435;53.292;6.000;2023-02-22T10:27:38;98.95;;;45.33;;
56537;SDS011;42435;53.292;6.000;2023-02-22T10:32:41;104.75;;;45.92;;
56537;SDS011;42435;53.292;6.000;2023-02-22T10:35:19;106.35;;;44.65;;
56537;SDS011;42435;53.292;6.000;2023-02-22T10:37:47;101.82;;;44.72;;
56537;SDS011;42435;53.292;6.000;2023-02-22T10:40:26;91.45;;;43.10;;
56537;SDS011;42435;53.292;6.000;2023-02-22T10:42:59;92.40;;;43.83;;
56537;SDS011;42435;53.292;6.000;2023-02-22T10:45:30;100.03;;;44.42;;
56537;SDS011;42435;53.292;6.000;2023-02-22T10:48:04;92.43;;;41.05;;
56537;SDS011;42435;53.292;6.000;2023-02-22T10:50:32;94.93;;;44.65;;
56537;SDS011;42435;53.292;6.000;2023-02-22T10:52:59;96.57;;;43.78;;
56537;SDS011;42435;53.292;6.000;2023-02-22T10:55:28;98.75;;;44.08;;
56537;SDS011;42435;53.292;6.000;2023-02-22T10:58:04;92.97;;;40.90;;
56537;SDS011;42435;53.292;6.000;2023-02-22T11:00:35;88.50;;;41.15;;
56537;SDS011;42435;53.292;6.000;2023-02-22T11:03:05;92.07;;;41.70;;
56537;SDS011;42435;53.292;6.000;2023-02-22T11:05:45;94.97;;;41.30;;
56537;SDS011;42435;53.292;6.000;2023-02-22T11:10:49;87.50;;;39.60;;
56537;SDS011;42435;53.292;6.000;2023-02-22T11:15:53;88.07;;;40.95;;
56537;SDS011;42435;53.292;6.000;2023-02-22T11:18:26;89.30;;;39.30;;
56537;SDS011;42435;53.292;6.000;2023-02-22T11:21:00;90.47;;;42.92;;
56537;SDS011;42435;53.292;6.000;2023-02-22T11:23:29;90.60;;;40.90;;
56537;SDS011;42435;53.292;6.000;2023-02-22T11:25:59;81.22;;;39.50;;
56537;SDS011;42435;53.292;6.000;2023-02-22T11:28:28;88.55;;;42.35;;
56537;SDS011;42435;53.292;6.000;2023-02-22T11:31:19;86.57;;;41.10;;
56537;SDS011;42435;53.292;6.000;2023-02-22T11:33:54;98.93;;;41.15;;
56537;SDS011;42435;53.292;6.000;2023-02-22T11:36:30;88.57;;;39.25;;
56537;SDS011;42435;53.292;6.000;2023-02-22T11:38:56;85.82;;;39.00;;
56537;SDS011;42435;53.292;6.000;2023-02-22T11:41:29;86.65;;;39.28;;
56537;SDS011;42435;53.292;6.000;2023-02-22T11:44:13;89.50;;;40.28;;
56537;SDS011;42435;53.292;6.000;2023-02-22T11:46:53;88.85;;;40.60;;
56537;SDS011;42435;53.292;6.000;2023-02-22T11:49:31;88.03;;;39.47;;
56537;SDS011;42435;53.292;6.000;2023-02-22T11:55:02;89.53;;;38.38;;
56537;SDS011;42435;53.292;6.000;2023-02-22T12:06:14;92.25;;;39.13;;
56537;SDS011;42435;53.292;6.000;2023-02-22T12:11:41;92.28;;;39.63;;
56537;SDS011;42435;53.292;6.000;2023-02-22T12:17:06;85.50;;;38.17;;
56537;SDS011;42435;53.292;6.000;2023-02-22T12:19:46;85.88;;;38.20;;
56537;SDS011;42435;53.292;6.000;2023-02-22T12:24:56;90.32;;;38.78;;
56537;SDS011;42435;53.292;6.000;2023-02-22T12:27:38;86.65;;;38.33;;
56537;SDS011;42435;53.292;6.000;2023-02-22T12:30:13;83.22;;;36.63;;
56537;SDS011;42435;53.292;6.000;2023-02-22T12:32:49;81.40;;;36.88;;
56537;SDS011;42435;53.292;6.000;2023-02-22T12:35:27;92.55;;;40.72;;
56537;SDS011;42435;53.292;6.000;2023-02-22T12:40:53;84.30;;;39.15;;
56537;SDS011;42435;53.292;6.000;2023-02-22T12:43:37;95.95;;;41.63;;
56537;SDS011;42435;53.292;6.000;2023-02-22T12:46:19;98.38;;;45.30;;
56537;SDS011;42435;53.292;6.000;2023-02-22T12:48:51;98.95;;;42.33;;
56537;SDS011;42435;53.292;6.000;2023-02-22T12:54:15;84.47;;;36.55;;
56537;SDS011;42435;53.292;6.000;2023-02-22T12:57:02;85.10;;;37.92;;
56537;SDS011;42435;53.292;6.000;2023-02-22T12:59:49;90.13;;;38.28;;
56537;SDS011;42435;53.292;6.000;2023-02-22T13:02:25;89.80;;;37.28;;
56537;SDS011;42435;53.292;6.000;2023-02-22T13:04:52;86.93;;;36.92;;
56537;SDS011;42435;53.292;6.000;2023-02-22T13:07:24;86.75;;;38.38;;
56537;SDS011;42435;53.292;6.000;2023-02-22T13:20:22;85.07;;;36.10;;
56537;SDS011;42435;53.292;6.000;2023-02-22T13:25:50;87.30;;;35.53;;
56537;SDS011;42435;53.292;6.000;2023-02-22T13:28:25;87.68;;;38.55;;
56537;SDS011;42435;53.292;6.000;2023-02-22T13:31:21;87.00;;;38.90;;
56537;SDS011;42435;53.292;6.000;2023-02-22T13:34:04;90.55;;;37.05;;
56537;SDS011;42435;53.292;6.000;2023-02-22T13:42:05;102.78;;;38.35;;
56537;SDS011;42435;53.292;6.000;2023-02-22T13:53:39;103.40;;;42.17;;
56537;SDS011;42435;53.292;6.000;2023-02-22T13:56:12;96.30;;;37.97;;
56537;SDS011;42435;53.292;6.000;2023-02-22T13:59:19;95.68;;;39.70;;
56537;SDS011;42435;53.292;6.000;2023-02-22T14:01:38;102.05;;;40.28;;
56537;SDS011;42435;53.292;6.000;2023-02-22T14:04:32;96.03;;;39.00;;
56537;SDS011;42435;53.292;6.000;2023-02-22T14:20:33;100.32;;;40.00;;
56537;SDS011;42435;53.292;6.000;2023-02-22T14:25:51;99.10;;;40.33;;
56537;SDS011;42435;53.292;6.000;2023-02-22T14:28:36;91.93;;;37.08;;
56537;SDS011;42435;53.292;6.000;2023-02-22T14:31:05;101.97;;;37.63;;
56537;SDS011;42435;53.292;6.000;2023-02-22T14:36:46;93.25;;;35.25;;
56537;SDS011;42435;53.292;6.000;2023-02-22T14:39:31;98.03;;;38.33;;
56537;SDS011;42435;53.292;6.000;2023-02-22T14:42:12;99.57;;;39.40;;
56537;SDS011;42435;53.292;6.000;2023-02-22T14:47:29;101.78;;;38.70;;
56537;SDS011;42435;53.292;6.000;2023-02-22T14:50:07;100.60;;;36.70;;
56537;SDS011;42435;53.292;6.000;2023-02-22T14:52:41;94.13;;;37.00;;
56537;SDS011;42435;53.292;6.000;2023-02-22T14:55:13;101.35;;;37.97;;
56537;SDS011;42435;53.292;6.000;2023-02-22T15:00:43;97.07;;;35.70;;
56537;SDS011;42435;53.292;6.000;2023-02-22T15:06:14;95.85;;;38.10;;
56537;SDS011;42435;53.292;6.000;2023-02-22T15:08:45;104.13;;;38.43;;
56537;SDS011;42435;53.292;6.000;2023-02-22T15:13:49;107.32;;;40.03;;
56537;SDS011;42435;53.292;6.000;2023-02-22T15:16:16;107.05;;;42.33;;
56537;SDS011;42435;53.292;6.000;2023-02-22T15:18:43;100.43;;;39.05;;
56537;SDS011;42435;53.292;6.000;2023-02-22T15:21:16;97.82;;;39.70;;
56537;SDS011;42435;53.292;6.000;2023-02-22T15:23:48;103.15;;;39.28;;
56537;SDS011;42435;53.292;6.000;2023-02-22T15:26:17;97.35;;;36.80;;
56537;SDS011;42435;53.292;6.000;2023-02-22T15:28:53;99.85;;;36.22;;
56537;SDS011;42435;53.292;6.000;2023-02-22T15:31:30;95.60;;;37.63;;
56537;SDS011;42435;53.292;6.000;2023-02-22T15:37:00;102.65;;;36.65;;
56537;SDS011;42435;53.292;6.000;2023-02-22T15:39:43;95.72;;;37.00;;
56537;SDS011;42435;53.292;6.000;2023-02-22T15:42:09;100.72;;;38.25;;
56537;SDS011;42435;53.292;6.000;2023-02-22T15:44:45;100.45;;;41.13;;
56537;SDS011;42435;53.292;6.000;2023-02-22T15:47:16;104.35;;;41.03;;
56537;SDS011;42435;53.292;6.000;2023-02-22T15:50:12;116.68;;;44.08;;
56537;SDS011;42435;53.292;6.000;2023-02-22T15:55:14;109.45;;;40.60;;
56537;SDS011;42435;53.292;6.000;2023-02-22T15:57:41;146.02;;;48.35;;
56537;SDS011;42435;53.292;6.000;2023-02-22T16:00:16;146.88;;;58.67;;
56537;SDS011;42435;53.292;6.000;2023-02-22T16:03:04;103.28;;;40.72;;
56537;SDS011;42435;53.292;6.000;2023-02-22T16:05:48;102.93;;;40.00;;
56537;SDS011;42435;53.292;6.000;2023-02-22T16:08:18;93.13;;;37.72;;
56537;SDS011;42435;53.292;6.000;2023-02-22T16:10:57;96.15;;;39.47;;
56537;SDS011;42435;53.292;6.000;2023-02-22T16:13:29;104.97;;;41.30;;
56537;SDS011;42435;53.292;6.000;2023-02-22T16:15:59;117.45;;;47.53;;
56537;SDS011;42435;53.292;6.000;2023-02-22T16:21:03;104.03;;;43.70;;
56537;SDS011;42435;53.292;6.000;2023-02-22T16:23:31;104.00;;;39.83;;
56537;SDS011;42435;53.292;6.000;2023-02-22T16:26:21;104.10;;;38.63;;
56537;SDS011;42435;53.292;6.000;2023-02-22T16:28:51;103.57;;;41.65;;
56537;SDS011;42435;53.292;6.000;2023-02-22T16:31:23;113.55;;;44.50;;
56537;SDS011;42435;53.292;6.000;2023-02-22T16:33:52;104.53;;;43.63;;
56537;SDS011;42435;53.292;6.000;2023-02-22T16:36:35;97.75;;;41.05;;
56537;SDS011;42435;53.292;6.000;2023-02-22T16:39:07;122.15;;;52.63;;
56537;SDS011;42435;53.292;6.000;2023-02-22T16:41:55;117.57;;;47.10;;
56537;SDS011;42435;53.292;6.000;2023-02-22T16:44:23;108.13;;;44.03;;
56537;SDS011;42435;53.292;6.000;2023-02-22T16:46:51;98.10;;;38.47;;
56537;SDS011;42435;53.292;6.000;2023-02-22T16:49:19;103.07;;;41.70;;
56537;SDS011;42435;53.292;6.000;2023-02-22T16:51:49;98.63;;;38.30;;
56537;SDS011;42435;53.292;6.000;2023-02-22T16:54:32;97.85;;;37.92;;
56537;SDS011;42435;53.292;6.000;2023-02-22T16:57:01;98.75;;;38.38;;
56537;SDS011;42435;53.292;6.000;2023-02-22T16:59:29;103.55;;;39.78;;
56537;SDS011;42435;53.292;6.000;2023-02-22T17:01:56;96.25;;;37.45;;
56537;SDS011;42435;53.292;6.000;2023-02-22T17:04:23;109.70;;;43.78;;
56537;SDS011;42435;53.292;6.000;2023-02-22T17:06:50;105.50;;;42.70;;
56537;SDS011;42435;53.292;6.000;2023-02-22T17:09:16;108.70;;;41.28;;
56537;SDS011;42435;53.292;6.000;2023-02-22T17:11:47;126.40;;;53.75;;
56537;SDS011;42435;53.292;6.000;2023-02-22T17:14:18;116.47;;;45.63;;
56537;SDS011;42435;53.292;6.000;2023-02-22T17:16:50;118.15;;;49.80;;
56537;SDS011;42435;53.292;6.000;2023-02-22T17:19:19;116.43;;;42.00;;